createdAt,value
2022-10-08T03:02:37.070Z,8.96
2022-10-08T03:05:08.857Z,9.14
2022-10-08T03:07:35.341Z,9.17
2022-10-08T03:10:06.629Z,9.13
2022-10-08T03:12:34.680Z,9.13
2022-10-08T03:15:01.433Z,8.97
2022-10-08T03:17:44.805Z,9.03
2022-10-08T03:20:12.275Z,9.17
2022-10-08T03:22:38.883Z,9.06
2022-10-08T03:25:05.987Z,9.18
2022-10-08T03:27:32.465Z,9.16
2022-10-08T03:29:58.870Z,9.17
2022-10-08T03:32:26.317Z,9.18
2022-10-08T03:34:53.522Z,9.17
2022-10-08T03:37:20.854Z,9.11
2022-10-08T03:39:47.448Z,9.16
2022-10-08T03:42:13.995Z,9.23
2022-10-08T03:44:40.422Z,9.42
2022-10-08T03:47:06.840Z,9.36
2022-10-08T03:49:34.685Z,9.39
2022-10-08T03:52:01.182Z,9.17
2022-10-08T03:54:27.631Z,9.06
2022-10-08T03:56:54.028Z,9.18
2022-10-08T03:59:20.479Z,9.24
2022-10-08T04:01:46.977Z,9.31
2022-10-08T04:04:13.585Z,9.41
2022-10-08T04:06:40.027Z,9.34
2022-10-08T04:09:06.560Z,9.51
2022-10-08T04:11:33.010Z,9.43
2022-10-08T04:14:00.299Z,9.34
2022-10-08T04:16:26.813Z,9.29
2022-10-08T04:18:53.257Z,9.34
2022-10-08T04:21:20.280Z,9.21
2022-10-08T04:23:49.557Z,9.12
2022-10-08T04:26:16.416Z,9.05
2022-10-08T04:28:44.437Z,9.25
2022-10-08T04:31:19.259Z,9.33
2022-10-08T04:33:46.595Z,9.28
2022-10-08T04:36:22.335Z,9.31
2022-10-08T04:38:49.108Z,9.34
2022-10-08T04:41:28.315Z,9.49
2022-10-08T04:43:58.645Z,9.55
2022-10-08T04:46:25.139Z,9.57
2022-10-08T04:48:54.065Z,9.60
2022-10-08T04:51:23.265Z,9.55
2022-10-08T04:53:50.369Z,9.52
2022-10-08T04:56:23.625Z,9.43
2022-10-08T04:58:50.586Z,9.29
2022-10-08T05:01:19.474Z,9.33
2022-10-08T05:03:48.752Z,9.28
2022-10-08T05:06:16.863Z,9.23
2022-10-08T05:08:44.653Z,9.26
2022-10-08T05:11:11.624Z,9.11
2022-10-08T05:13:38.151Z,9.08
2022-10-08T05:16:10.285Z,9.20
2022-10-08T05:18:38.071Z,9.20
2022-10-08T05:21:06.641Z,9.03
2022-10-08T05:23:33.890Z,9.09
2022-10-08T05:26:02.345Z,8.87
2022-10-08T05:28:29.876Z,8.95
2022-10-08T05:31:00.998Z,9.16
2022-10-08T05:33:27.492Z,9.09
2022-10-08T05:35:54.070Z,9.26
2022-10-08T05:38:20.662Z,9.38
2022-10-08T05:40:47.233Z,9.27
2022-10-08T05:43:13.897Z,9.29
2022-10-08T05:45:40.316Z,9.24
2022-10-08T05:48:06.778Z,9.30
2022-10-08T05:50:36.422Z,9.28
2022-10-08T05:53:05.380Z,9.32
2022-10-08T05:55:35.150Z,9.27
2022-10-08T05:58:01.639Z,9.23
2022-10-08T06:00:28.241Z,9.39
2022-10-08T06:02:54.711Z,9.29
2022-10-08T06:05:21.975Z,9.35
2022-10-08T06:07:48.541Z,9.39
2022-10-08T06:10:15.041Z,9.44
2022-10-08T06:12:41.455Z,9.24
2022-10-08T06:15:08.133Z,9.35
2022-10-08T06:17:34.650Z,9.30
2022-10-08T06:20:01.118Z,9.48
2022-10-08T06:22:27.509Z,9.49
2022-10-08T06:24:54.110Z,9.44
2022-10-08T06:27:20.540Z,9.32
2022-10-08T06:29:46.951Z,9.33
2022-10-08T06:32:13.411Z,9.25
2022-10-08T06:34:41.964Z,9.32
2022-10-08T06:37:08.471Z,9.37
2022-10-08T06:39:34.950Z,9.24
2022-10-08T06:42:01.495Z,9.33
2022-10-08T06:44:27.928Z,9.26
2022-10-08T06:46:54.423Z,9.37
2022-10-08T06:49:22.142Z,9.34
2022-10-08T06:51:48.604Z,9.44
2022-10-08T06:54:15.427Z,9.45
2022-10-08T06:56:41.887Z,9.40
2022-10-08T06:59:08.470Z,9.69
2022-10-08T07:01:36.074Z,10.08
2022-10-08T07:04:04.347Z,10.59
2022-10-08T07:06:31.343Z,10.77
2022-10-08T07:09:00.158Z,10.50
2022-10-08T07:11:27.421Z,10.79
2022-10-08T07:13:55.141Z,11.31
2022-10-08T07:16:24.212Z,10.99
2022-10-08T07:18:52.561Z,10.61
2022-10-08T07:21:20.715Z,10.37
2022-10-08T07:23:47.278Z,10.67
2022-10-08T07:26:16.198Z,11.72
2022-10-08T07:29:04.563Z,12.44
2022-10-08T07:31:33.822Z,13.12
2022-10-08T07:34:01.855Z,13.77
2022-10-08T07:36:29.278Z,14.37
2022-10-08T07:38:57.935Z,14.83
2022-10-08T07:41:25.045Z,15.39
2022-10-08T07:43:53.117Z,15.14
2022-10-08T07:46:20.258Z,15.81
2022-10-08T07:48:46.948Z,16.44
2022-10-08T07:51:19.451Z,16.31
2022-10-08T07:53:46.582Z,16.43
2022-10-08T07:56:15.735Z,16.74
2022-10-08T07:58:42.265Z,17.37
2022-10-08T08:01:14.023Z,17.69
2022-10-08T08:03:40.625Z,17.80
2022-10-08T08:06:10.884Z,17.78
2022-10-08T08:08:39.260Z,18.17
2022-10-08T08:11:07.493Z,18.40
2022-10-08T08:13:37.454Z,18.16
2022-10-08T08:16:07.304Z,18.55
2022-10-08T08:18:36.682Z,19.05
2022-10-08T08:21:09.839Z,19.18
2022-10-08T08:23:39.645Z,18.75
2022-10-08T08:26:10.071Z,18.46
2022-10-08T08:28:37.019Z,19.31
2022-10-08T08:31:17.939Z,18.95
2022-10-08T08:33:50.832Z,19.29
2022-10-08T08:36:19.068Z,18.89
2022-10-08T08:38:46.445Z,19.44
2022-10-08T08:41:22.143Z,19.44
2022-10-08T08:43:48.925Z,19.01
2022-10-08T08:46:20.991Z,18.81
2022-10-08T08:48:48.206Z,19.17
2022-10-08T08:51:16.446Z,19.26
2022-10-08T08:53:43.130Z,18.95
2022-10-08T08:56:15.799Z,18.35
2022-10-08T08:58:49.816Z,18.18
2022-10-08T09:01:19.588Z,18.08
2022-10-08T09:03:51.007Z,18.61
2022-10-08T09:06:22.689Z,18.98
2022-10-08T09:09:04.232Z,18.35
2022-10-08T09:11:30.794Z,17.98
2022-10-08T09:14:27.029Z,18.73
2022-10-08T09:16:56.057Z,19.67
2022-10-08T09:19:22.733Z,19.04
2022-10-08T09:21:49.191Z,18.69
2022-10-08T09:24:16.744Z,18.42
2022-10-08T09:26:43.479Z,18.23
2022-10-08T09:29:31.277Z,17.46
2022-10-08T09:31:57.889Z,16.73
2022-10-08T09:34:24.451Z,16.43
2022-10-08T09:37:03.422Z,16.78
2022-10-08T09:39:32.711Z,17.32
2022-10-08T09:42:19.481Z,16.76
2022-10-08T09:44:59.047Z,16.99
2022-10-08T09:47:27.088Z,16.97
2022-10-08T09:50:15.883Z,17.01
2022-10-08T09:52:43.031Z,16.88
2022-10-08T09:55:31.404Z,16.65
2022-10-08T09:58:04.050Z,16.14
2022-10-08T10:00:35.517Z,16.05
2022-10-08T10:03:04.917Z,15.91
2022-10-08T10:05:36.025Z,16.09
2022-10-08T10:08:02.910Z,16.18
2022-10-08T10:10:34.556Z,16.45
2022-10-08T10:13:19.399Z,16.64
2022-10-08T10:16:14.371Z,16.30
2022-10-08T10:18:55.930Z,16.33
2022-10-08T10:21:40.425Z,15.73
2022-10-08T10:24:15.427Z,15.37
2022-10-08T10:26:44.171Z,15.78
2022-10-08T10:29:17.993Z,15.33
2022-10-08T10:31:50.928Z,15.58
2022-10-08T10:34:30.568Z,15.99
2022-10-08T10:37:01.990Z,16.43
2022-10-08T10:39:33.752Z,15.67
2022-10-08T10:42:21.295Z,15.42
2022-10-08T10:44:56.177Z,15.14
2022-10-08T10:47:29.617Z,14.97
2022-10-08T10:50:00.302Z,15.07
2022-10-08T10:52:39.558Z,14.96
2022-10-08T10:55:27.936Z,14.69
2022-10-08T10:58:00.523Z,14.59
2022-10-08T11:00:48.025Z,14.38
2022-10-08T11:03:38.442Z,14.53
2022-10-08T11:06:26.245Z,14.74
2022-10-08T11:09:19.235Z,14.98
2022-10-08T11:11:52.381Z,14.73
2022-10-08T11:14:42.590Z,14.72
2022-10-08T11:17:31.948Z,14.81
2022-10-08T11:20:11.112Z,14.73
2022-10-08T11:23:00.465Z,14.42
2022-10-08T11:29:00.171Z,14.19
2022-10-08T11:31:45.266Z,14.00
2022-10-08T11:34:29.390Z,14.00
2022-10-08T11:37:13.811Z,13.73
2022-10-08T11:40:03.308Z,13.90
2022-10-08T11:42:45.025Z,13.56
2022-10-08T11:45:24.032Z,13.39
2022-10-08T11:47:54.390Z,13.48
2022-10-08T11:50:28.673Z,13.09
2022-10-08T11:53:09.707Z,13.52
2022-10-08T11:55:37.738Z,13.29
2022-10-08T11:58:08.814Z,13.49
2022-10-08T12:00:46.614Z,13.45
2022-10-08T12:03:33.920Z,13.75
2022-10-08T12:06:25.252Z,13.94
2022-10-08T12:08:54.673Z,14.23
2022-10-08T12:11:30.019Z,14.48
2022-10-08T12:14:11.803Z,14.49
2022-10-08T12:16:47.352Z,14.63
2022-10-08T12:19:32.469Z,14.65
2022-10-08T12:22:02.342Z,14.92
2022-10-08T12:24:38.194Z,15.42
2022-10-08T12:27:16.865Z,15.62
2022-10-08T12:29:56.883Z,16.40
2022-10-08T12:32:29.351Z,16.56
2022-10-08T12:34:56.514Z,16.59
2022-10-08T12:37:31.980Z,15.97
2022-10-08T12:40:09.353Z,15.64
2022-10-08T12:42:38.368Z,15.60
2022-10-08T12:45:17.633Z,16.15
2022-10-08T12:48:19.404Z,16.05
2022-10-08T12:51:03.390Z,16.32
2022-10-08T12:53:30.279Z,16.25
2022-10-08T12:55:58.431Z,15.83
2022-10-08T12:58:29.115Z,16.02
2022-10-08T13:00:59.768Z,15.21
2022-10-08T13:03:26.356Z,15.14
2022-10-08T13:05:55.229Z,15.00
2022-10-08T13:08:29.562Z,14.73
2022-10-08T13:10:57.986Z,14.84
2022-10-08T13:13:44.844Z,15.00
2022-10-08T13:16:15.549Z,14.98
2022-10-08T13:18:45.664Z,14.86
2022-10-08T13:21:24.013Z,14.54
2022-10-08T13:23:51.308Z,14.60
2022-10-08T13:26:37.735Z,14.64
2022-10-08T13:29:22.327Z,14.46
2022-10-08T13:31:56.178Z,14.32
2022-10-08T13:34:24.822Z,14.22
2022-10-08T13:36:57.349Z,14.45
2022-10-08T13:39:49.616Z,14.29
2022-10-08T13:42:18.572Z,14.38
2022-10-08T13:44:45.621Z,14.38
2022-10-08T13:47:18.050Z,14.48
2022-10-08T13:49:44.788Z,14.73
2022-10-08T13:52:21.471Z,14.65
2022-10-08T13:54:49.650Z,14.56
2022-10-08T13:57:16.187Z,14.55
2022-10-08T13:59:42.966Z,14.66
2022-10-08T14:02:13.943Z,14.25
2022-10-08T14:04:40.505Z,14.36
2022-10-08T14:07:20.085Z,14.22
2022-10-08T14:09:46.554Z,14.54
2022-10-08T14:12:12.979Z,14.44
2022-10-08T14:14:39.430Z,14.39
2022-10-08T14:17:06.035Z,14.25
2022-10-08T14:19:32.469Z,14.15
2022-10-08T14:21:59.427Z,14.44
2022-10-08T14:24:25.953Z,14.22
2022-10-08T14:26:52.738Z,14.16
2022-10-08T14:29:19.182Z,14.01
2022-10-08T14:31:45.738Z,13.89
2022-10-08T14:34:12.308Z,13.90
2022-10-08T14:36:41.755Z,14.18
2022-10-08T14:39:09.854Z,14.33
2022-10-08T14:41:36.704Z,13.54
2022-10-08T14:44:03.191Z,13.35
2022-10-08T14:46:29.644Z,13.04
2022-10-08T14:48:56.198Z,13.34
2022-10-08T14:51:22.671Z,13.33
2022-10-08T14:53:50.222Z,13.31
2022-10-08T14:56:16.778Z,13.33
2022-10-08T14:58:43.268Z,13.41
2022-10-08T15:01:10.200Z,13.55
2022-10-08T15:03:36.756Z,13.45
2022-10-08T15:06:03.368Z,13.55
2022-10-08T15:08:29.960Z,13.58
2022-10-08T15:10:56.397Z,13.63
2022-10-08T15:13:22.967Z,13.77
2022-10-08T15:15:49.388Z,13.77
2022-10-08T15:18:15.870Z,13.76
2022-10-08T15:20:43.043Z,13.30
2022-10-08T15:23:10.450Z,13.53
2022-10-08T15:25:37.411Z,13.49
2022-10-08T15:28:04.281Z,13.16
2022-10-08T15:30:30.909Z,12.97
2022-10-08T15:33:03.004Z,12.98
2022-10-08T15:35:33.364Z,12.78
2022-10-08T15:37:59.899Z,12.77
2022-10-08T15:40:28.623Z,12.75
2022-10-08T15:42:55.054Z,12.51
2022-10-08T15:45:21.628Z,12.37
2022-10-08T15:47:51.070Z,12.32
2022-10-08T15:50:17.540Z,12.22
2022-10-08T15:52:46.351Z,12.30
2022-10-08T15:55:13.255Z,12.14
2022-10-08T15:57:39.779Z,12.10
2022-10-08T16:00:06.829Z,12.23
2022-10-08T16:02:33.401Z,12.20
2022-10-08T16:04:59.979Z,12.10
2022-10-08T16:07:26.395Z,12.23
2022-10-08T16:09:52.855Z,12.12
2022-10-08T16:12:19.288Z,12.01
2022-10-08T16:14:45.712Z,12.18
2022-10-08T16:17:12.170Z,12.10
2022-10-08T16:19:38.689Z,12.03
2022-10-08T16:22:05.517Z,12.11
2022-10-08T16:24:32.027Z,12.06
2022-10-08T16:26:58.479Z,11.92
2022-10-08T16:29:24.906Z,11.87
2022-10-08T16:31:51.473Z,11.89
2022-10-08T16:34:20.675Z,11.81
2022-10-08T16:36:51.146Z,11.95
2022-10-08T16:39:20.791Z,11.81
2022-10-08T16:41:48.157Z,11.71
2022-10-08T16:44:16.851Z,11.83
2022-10-08T16:46:48.341Z,11.70
2022-10-08T16:49:25.027Z,11.67
2022-10-08T16:51:58.722Z,11.64
2022-10-08T16:54:25.740Z,11.71
2022-10-08T16:56:52.160Z,11.37
2022-10-08T16:59:21.383Z,11.53
2022-10-08T17:01:50.643Z,11.59
2022-10-08T17:04:18.239Z,11.48
2022-10-08T17:06:44.849Z,11.28
2022-10-08T17:09:14.527Z,11.21
2022-10-08T17:11:41.907Z,11.43
2022-10-08T17:14:10.270Z,11.40
2022-10-08T17:16:37.326Z,11.20
2022-10-08T17:19:04.314Z,11.33
2022-10-08T17:21:33.030Z,11.13
2022-10-08T17:24:01.740Z,11.22
2022-10-08T17:26:29.559Z,10.92
2022-10-08T17:28:56.055Z,11.13
2022-10-08T17:31:29.299Z,10.89
2022-10-08T17:33:55.809Z,10.91
2022-10-08T17:36:25.317Z,10.80
2022-10-08T17:38:53.377Z,10.59
2022-10-08T17:41:25.108Z,10.57
2022-10-08T17:43:52.965Z,10.66
2022-10-08T17:46:23.495Z,10.72
2022-10-08T17:48:50.791Z,10.72
2022-10-08T17:51:20.215Z,10.71
2022-10-08T17:54:01.606Z,10.57
2022-10-08T17:56:28.848Z,10.61
2022-10-08T17:58:56.144Z,10.71
2022-10-08T18:01:31.959Z,10.60
2022-10-08T18:04:01.204Z,10.60
2022-10-08T18:06:29.052Z,10.61
2022-10-08T18:08:57.093Z,10.57
2022-10-08T18:11:24.368Z,10.57
2022-10-08T18:13:51.122Z,10.62
2022-10-08T18:16:19.077Z,10.44
2022-10-08T18:18:46.858Z,10.42
2022-10-08T18:21:16.566Z,10.45
2022-10-08T18:23:43.566Z,10.30
2022-10-08T18:26:34.828Z,10.38
2022-10-08T18:29:04.440Z,10.32
2022-10-08T18:31:32.972Z,10.36
2022-10-08T18:34:08.647Z,10.30
2022-10-08T18:36:37.159Z,10.23
2022-10-08T18:39:06.978Z,10.30
2022-10-08T18:41:38.030Z,10.18
2022-10-08T18:44:06.310Z,10.15
2022-10-08T18:46:36.857Z,10.18
2022-10-08T18:49:04.721Z,10.06
2022-10-08T18:51:31.725Z,10.15
2022-10-08T18:53:59.289Z,10.14
2022-10-08T18:56:31.220Z,10.11
2022-10-08T18:59:03.858Z,10.09
2022-10-08T19:01:41.174Z,10.07
2022-10-08T19:04:11.883Z,9.97
2022-10-08T19:06:39.931Z,10.12
2022-10-08T19:09:07.053Z,9.97
2022-10-08T19:11:44.644Z,9.92
2022-10-08T19:14:13.639Z,9.92
2022-10-08T19:16:41.252Z,9.97
2022-10-08T19:19:14.685Z,9.98
2022-10-08T19:21:41.849Z,9.95
2022-10-08T19:24:12.382Z,9.89
2022-10-08T19:26:38.792Z,9.85
2022-10-08T19:29:05.327Z,9.89
2022-10-08T19:31:34.021Z,9.87
2022-10-08T19:34:05.908Z,9.76
2022-10-08T19:36:37.504Z,9.77
2022-10-08T19:39:06.217Z,9.83
2022-10-08T19:41:32.918Z,9.68
2022-10-08T19:43:59.653Z,9.66
2022-10-08T19:46:27.334Z,9.56
2022-10-08T19:48:59.691Z,9.64
2022-10-08T19:51:28.126Z,9.68
2022-10-08T19:53:55.450Z,9.70
2022-10-08T19:56:22.535Z,9.68
2022-10-08T19:58:53.051Z,9.69
2022-10-08T20:01:22.021Z,9.54
2022-10-08T20:03:49.236Z,9.52
2022-10-08T20:06:23.241Z,9.57
2022-10-08T20:08:54.155Z,9.57
2022-10-08T20:11:21.173Z,9.56
2022-10-08T20:13:49.189Z,9.58
2022-10-08T20:16:24.250Z,9.53
2022-10-08T20:19:01.421Z,9.58
2022-10-08T20:21:30.266Z,9.61
2022-10-08T20:23:57.215Z,9.45
2022-10-08T20:26:35.354Z,9.60
2022-10-08T20:29:16.975Z,9.56
2022-10-08T20:31:46.621Z,9.62
2022-10-08T20:34:17.595Z,9.59
2022-10-08T20:36:48.276Z,9.48
2022-10-08T20:39:16.799Z,9.63
2022-10-08T20:41:43.614Z,9.49
2022-10-08T20:44:10.336Z,9.53
2022-10-08T20:46:37.657Z,9.53
2022-10-08T20:49:04.965Z,9.47
2022-10-08T20:51:32.853Z,9.46
2022-10-08T20:54:05.428Z,9.37
2022-10-08T20:56:38.443Z,9.42
2022-10-08T20:59:05.426Z,9.34
2022-10-08T21:01:35.465Z,9.40
2022-10-08T21:04:02.305Z,9.45
2022-10-08T21:06:36.146Z,9.40
2022-10-08T21:09:02.746Z,9.29
2022-10-08T21:11:30.263Z,9.18
2022-10-08T21:13:59.475Z,9.27
2022-10-08T21:16:28.301Z,9.20
2022-10-08T21:18:59.901Z,9.22
2022-10-08T21:21:27.709Z,9.23
2022-10-08T21:23:54.139Z,9.19
2022-10-08T21:26:24.001Z,9.19
2022-10-08T21:28:53.209Z,9.11
2022-10-08T21:31:20.905Z,9.18
2022-10-08T21:33:49.250Z,9.11
2022-10-08T21:36:29.451Z,9.09
2022-10-08T21:38:56.570Z,8.97
2022-10-08T21:41:25.005Z,9.13
2022-10-08T21:43:54.145Z,9.07
2022-10-08T21:46:22.866Z,8.98
2022-10-08T21:49:08.182Z,8.92
2022-10-08T21:51:35.396Z,9.05
2022-10-08T21:54:03.563Z,9.11
2022-10-08T21:56:32.183Z,9.11
2022-10-08T21:59:00.467Z,9.09
